This is the latest recevied weather packets stored in our database for station/object K7LDN-13. If no packets are shown the sender has not sent any weather packets the latest 10 day(s).
| Time | Temp. | Humidity | Pressure | Rain* | Wind** | Luminosity | Snow |
|---|---|---|---|---|---|---|---|
| 1777951660 | 16.67° C | 44% | 1010.2 hPa | 0 mm | - | 0 W/m² | - |
| 1777951356 | 16.67° C | 46% | 1010.2 hPa | 0 mm | - | 0 W/m² | - |
| 1777951053 | 16.67° C | 45% | 1010.3 hPa | 0 mm | - | 0 W/m² | - |
| 1777950749 | 17.22° C | 43% | 1010.2 hPa | 0 mm | - | 0 W/m² | - |
| 1777950447 | 17.22° C | 41% | 1010.4 hPa | 0 mm | - | 0 W/m² | - |
| 1777950143 | 17.22° C | 41% | 1010.2 hPa | 0 mm | - | 0 W/m² | - |
| 1777949838 | 17.22° C | 41% | 1010.2 hPa | 0 mm | - | 0 W/m² | - |
| 1777949537 | 17.22° C | 42% | 1010 hPa | 0 mm | - | 0 W/m² | - |
| 1777949235 | 17.78° C | 42% | 1010 hPa | 0 mm | - | 0 W/m² | - |
| 1777948931 | 17.78° C | 42% | 1010.1 hPa | 0 mm | - | 0 W/m² | - |
| 1777948629 | 17.78° C | 41% | 1010 hPa | 0 mm | - | 1 W/m² | - |
| 1777948326 | 17.78° C | 41% | 1009.8 hPa | 0 mm | - | 2 W/m² | - |
| 1777948024 | 17.78° C | 41% | 1009.8 hPa | 0 mm | - | 3 W/m² | - |
| 1777947720 | 18.33° C | 41% | 1009.8 hPa | 0 mm | - | 4 W/m² | - |
| 1777947417 | 18.33° C | 39% | 1009.8 hPa | 0 mm | - | 6 W/m² | - |
| 1777947114 | 18.89° C | 37% | 1009.6 hPa | 0 mm | - | 8 W/m² | - |
| 1777946810 | 18.33° C | 37% | 1009.5 hPa | 0 mm | - | 12 W/m² | - |
| 1777946505 | 18.89° C | 37% | 1009.8 hPa | 0 mm | - | 16 W/m² | - |
| 1777946203 | 18.89° C | 37% | 1009.8 hPa | 0 mm | - | 24 W/m² | - |
| 1777945899 | 18.89° C | 36% | 1009.5 hPa | 0 mm | - | 32 W/m² | - |
| 1777945596 | 18.89° C | 36% | 1009.8 hPa | 0 mm | - | 41 W/m² | - |
| 1777945293 | 18.89° C | 36% | 1009.8 hPa | 0 mm | - | 47 W/m² | - |
| 1777944991 | 18.89° C | 36% | 1009.9 hPa | 0 mm | - | 53 W/m² | - |
| 1777944688 | 19.44° C | 36% | 1009.4 hPa | 0 mm | - | 33 W/m² | - |
| 1777944386 | 19.44° C | 35% | 1009.9 hPa | 0 mm | - | 59 W/m² | - |
* Rain latest hour (hover to see other rain measurements)
** Current wind speed in m/s (hover to see current wind gust speed)